Aérodrome :
LOGIN :

S'inscrire | Disclaimer

   EN    FR    IT 

 










Légende :    VFR   VFR Marginal   IFR   IFR Intensif   IFR Très Intensif
Visi : 
Plafond : 
>= 8 km
>= 3000ft
5 à 8 km
1000 à 3000 ft
1500m à 5 km
500 à 1000 ft
800 à 1500m
200 à 500 ft
< 800m
< 200 ft
Symboles :   Orages  Brouillard  Fortes neiges  Fortes précipitations  Vent > 20 kt
SIGMETs :   Divers  Orages  Givrage  Turbulence  Onde Orograph.  Cendres Volcan.






- Altitude de l'aérodrome : 245 ft
- Code IATA : BIQ


LFBZ - Biarritz

DERNIER METAR :
  • 222000Z AUTO 00000KT CAVOK 19/17 Q1013 NOSIG

METARs EXPIRÉS :
  • 221930Z AUTO 31001KT CAVOK 19/17 Q1013 NOSIG
  • 221900Z AUTO 36002KT CAVOK 19/16 Q1012 NOSIG
  • 221830Z AUTO 02003KT CAVOK 20/17 Q1012 NOSIG
  • 221800Z AUTO 36004KT CAVOK 20/16 Q1012 NOSIG
  • 221730Z AUTO 01004KT 330V040 CAVOK 21/17 Q1012 NOSIG

TAF TAF LFBZ
Valide du 22 à 18h jusqu'au 23 à 18h UTC


221700Z 2218/2318 VRB02KT CAVOK
PROB30
TEMPO 2303/2307 4800 MIFG
BECMG 2313/2315 30010KT -RA BKN055TCU
TEMPO 2315/2318 3000 SHRA BKN018TCU



MET'MAP, la Météo Aéronautique d'un coup d'oeil ! - Copyright ORBIFLY Décembre 2007 - Disclaimer

ORBIFLY MET'MAP TEAM :

Programmation & Développement : Alexandra Zaïnal
Sur une idée originale de : Baudouin d'Aumeries
Assistance à la programmation : Marc-Olivier Méhu
Soutien technique & logistique : Manuel Goepfert

Contact : metmap@orbifly.com




SOURCES & CREDITS :

   NOAA